McCall, ID

6:02 AM MST on December 05, 2016 (GMT -0700)
Spring Mountain Ranch | | Change Station

Elev 5097 ft 44.91 °N, 116.08 °W | Updated 16 seconds ago

Clear
Clear
6.8 °F
Feels Like 7 °F
N
0.0
Wind Variable Wind from ESE

Today
High -- | Low -- °F
--% Chance of Precip.
Yesterday
High -- | Low -- °F
Precip. -- in
Pressure 30.12 in
Visibility 7.0 miles
Clouds Clear
Windchill 7 °F
Dew Point 5 °F
Humidity 96%
Rainfall 0.00 in
Snow Depth Not available.
8:07 AM 5:03 PM
Waxing Crescent, 31% visible
METAR KMYL 051251Z AUTO 10003KT 7SM CLR M15/M17 A2995 RMK AO2 SLP198 T11501172 $
Pressure 30.12 in
Visibility 7.0 miles
Clouds Clear
Windchill 7 °F
Dew Point 5 °F
Humidity 96%
Rainfall 0.00 in
Snow Depth Not available.
8:07 AM 5:03 PM
Waxing Crescent, 31% visible
METAR KMYL 051251Z AUTO 10003KT 7SM CLR M15/M17 A2995 RMK AO2 SLP198 T11501172 $

10-Day Weather Forecast

Almanac

Astronomy

Dec. 05, 2016 Rise Set
Actual Time
Civil Twilight
Nautical Twilight
Astronomical Twilight
Moon
Length of Visible Light
Length of Day
Tomorrow will be .
, % of the Moon is Illuminated

Today's Extremes

State Highs State Lows

Community

WunderPhotos

Upload Photos

1,955,780 photos uploaded!

WunderBlog® & News

Nearby

Air Quality

  Air Quality AQ Index Pollutant
Not available.

Snow Depth

Station Depth Elevation

Earthquake Activity

City Distance Mag. Time & Date
Minimum magnitude displayed is 2.5.

Coastal Water Temperatures

Place Temperature

Stations

Nearby Weather Stations

Station Location Temp. Windchill Dew Point Humidity Wind Precip. Elev Updated Type
                   

Watches & Warnings

There are currently no watches in effect.